Aviator — V7NU9 — position and weather

sailwx.info

Track history (hours):
 
Tides and Currents Weather Stations Pressure Air Temp Water Temp Dewpoint Dewpoint Depression Visibility Wind Speed Wind Dir Waves Ship Positions

Aviator

Last reported at 2015-May-18 19:06 UTC. Time now 2015-May-29 06:15 UTC.
Position N 34°57' W 011°54'.
Warning: this ship's position is 10 days out of date.

Length 140 m; draft 8.4 m.

Type: Ship. MMSI: 538003023.

Date/timePositionNaut miles runAvg speedWind from/ knotsBaromVisibWave heightAir tempDewpointWater temp
2015-May-18 19:06N 34°57' W 011°54'10413.3
2015-May-18 11:17N 36°40' W 011°38'1013.0
2015-May-18 10:32N 36°50' W 011°37'1313.4
2015-May-18 09:32N 37°03' W 011°35'1413.7
2015-May-18 08:33N 37°16' W 011°33'1413.7
2015-May-18 07:33N 37°30' W 011°31'1413.6
2015-May-18 06:32N 37°43' W 011°29'2713.4
2015-May-18 04:33N 38°10' W 011°24'2913.0
2015-May-18 02:18N 38°39' W 011°20'7013.4
2015-May-17 21:05N 39°48' W 011°09'62712.3
2015-May-15 18:03N 49°06' W 004°28'19711.9
2015-May-15 01:24N 50°31' E 000°08'1214.7
2015-May-15 00:33N 50°35' E 000°27'1414.1
2015-May-14 23:33N 50°42' E 000°46'1313.2
2015-May-14 22:33N 50°50' E 001°02'1311.8
2015-May-14 21:26N 50°59' E 001°18'910.8
2015-May-14 20:33N 51°05' E 001°29'1211.6
2015-May-14 19:33N 51°13' E 001°43'1313.4
2015-May-14 18:33N 51°24' E 001°55'1514.7
2015-May-14 17:33N 51°35' E 002°10'10013.3
2015-May-14 10:05N 52°53' E 003°52'713.0
2015-May-14 09:31N 52°58' E 004°01'3013.8
2015-May-14 07:20N 53°22' E 004°31'1314.1
2015-May-14 06:26N 53°34' E 004°38'2613.5
2015-May-14 04:32N 53°58' E 004°54'1312.8
2015-May-14 03:33N 54°08' E 005°06'1413.1
2015-May-14 02:30N 54°20' E 005°18'27110.7
2015-May-13 01:18N 57°49' E 010°27'811.0
2015-May-13 00:33N 57°49' E 010°42'1211.3
2015-May-12 23:32N 57°42' E 011°00'1111.8
2015-May-12 22:34N 57°34' E 011°15'1211.9
2015-May-12 21:34N 57°25' E 011°29'1312.6
2015-May-12 20:33N 57°13' E 011°37'1312.9
2015-May-12 19:33N 57°00' E 011°45'1212.5
2015-May-12 18:33N 56°49' E 011°52'8712.4
2015-May-12 11:33N 55°28' E 010°56'2512.3
2015-May-12 09:31N 55°03' E 011°03'1211.8
2015-May-12 08:31N 54°53' E 010°54'1111.7
2015-May-12 07:33N 54°41' E 010°55'1413.6
2015-May-12 06:33N 54°35' E 011°16'1413.6
2015-May-12 05:33N 54°29' E 011°37'1312.9
2015-May-12 04:33N 54°26' E 011°59'1111.4
2015-May-12 03:33N 54°34' E 012°13'1312.9
2015-May-12 02:33N 54°43' E 012°29'1312.9
2015-May-12 01:33N 54°49' E 012°49'1313.1
2015-May-12 00:33N 54°53' E 013°10'1313.2
2015-May-11 23:33N 54°58' E 013°32'1313.1
2015-May-11 22:33N 55°02' E 013°53'1312.6
2015-May-11 21:33N 55°09' E 014°11'1313.0
2015-May-11 20:33N 55°20' E 014°26'1312.9
2015-May-11 19:33N 55°28' E 014°42'1313.0
2015-May-11 18:33N 55°35' E 015°02'1313.1
2015-May-11 17:33N 55°42' E 015°22'1713.2
2015-May-11 16:14N 55°50' E 015°48'33312.9
2015-May-10 14:30N 59°38' E 023°24'1313.6
2015-May-10 13:32N 59°42' E 023°49'1413.8
2015-May-10 12:33N 59°46' E 024°14'1413.6
2015-May-10 11:33N 59°49' E 024°41'4513.5
2015-May-10 08:15N 59°58' E 026°08'913.5
2015-May-10 07:33N 60°00' E 026°26'1313.2
2015-May-10 06:33N 60°00' E 026°52'1712.8
2015-May-10 05:13N 60°06' E 027°25'1313.0
2015-May-10 04:15N 60°12' E 027°47'5712.2
2015-May-09 23:33N 59°60' E 029°39'1010.2
2015-May-09 22:33N 59°56' E 029°58'7 7.3
2015-May-09 21:33N 59°53' E 030°11'0 0.0
2015-May-09 20:31N 59°53' E 030°11'0 0.0
2015-May-09 19:31N 59°53' E 030°11'0 0.0
2015-May-09 18:31N 59°53' E 030°11'0 0.0
2015-May-09 17:31N 59°53' E 030°11'0 0.0
2015-May-09 16:31N 59°53' E 030°11'0 0.0
2015-May-09 15:31N 59°53' E 030°11'0 0.0
2015-May-09 14:31N 59°53' E 030°11'0 0.0
2015-May-09 13:31N 59°53' E 030°11'0 0.0
2015-May-09 12:31N 59°53' E 030°11'0 0.0
2015-May-09 11:31N 59°53' E 030°11'0 0.0
2015-May-09 10:31N 59°53' E 030°11'0 0.0
2015-May-09 09:31N 59°53' E 030°11'0 0.0
2015-May-09 08:28N 59°53' E 030°11'0 0.0
2015-May-09 07:31N 59°53' E 030°11'0 0.0
2015-May-09 06:31N 59°53' E 030°11'0 0.0
2015-May-09 05:31N 59°53' E 030°11'0 0.0
2015-May-09 04:33N 59°53' E 030°11'7 6.9
2015-May-09 03:33N 59°56' E 029°59'1010.4
2015-May-09 02:33N 59°60' E 029°40'11 8.4
2015-May-09 01:14N 60°02' E 029°18'6310.8
2015-May-08 19:25N 60°00' E 027°12'  
Track history (hours):
 
Tides and Currents Weather Stations Pressure Air Temp Water Temp Dewpoint Dewpoint Depression Visibility Wind Speed Wind Dir Waves Ship Positions

Aviator

Last reported at 2015-May-18 19:06 UTC. Time now 2015-May-29 06:15 UTC.
Position N 34°57' W 011°54'.
Warning: this ship's position is 10 days out of date.

Length 140 m; draft 8.4 m.

Type: Ship. MMSI: 538003023.

Date/timePositionNaut miles runAvg speedWind from/ knotsBaromVisibWave heightAir tempDewpointWater temp
2015-May-18 19:06N 34°57' W 011°54'10413.3
2015-May-18 11:17N 36°40' W 011°38'1013.0
2015-May-18 10:32N 36°50' W 011°37'1313.4
2015-May-18 09:32N 37°03' W 011°35'1413.7
2015-May-18 08:33N 37°16' W 011°33'1413.7
2015-May-18 07:33N 37°30' W 011°31'1413.6
2015-May-18 06:32N 37°43' W 011°29'2713.4
2015-May-18 04:33N 38°10' W 011°24'2913.0
2015-May-18 02:18N 38°39' W 011°20'7013.4
2015-May-17 21:05N 39°48' W 011°09'62712.3
2015-May-15 18:03N 49°06' W 004°28'19711.9
2015-May-15 01:24N 50°31' E 000°08'1214.7
2015-May-15 00:33N 50°35' E 000°27'1414.1
2015-May-14 23:33N 50°42' E 000°46'1313.2
2015-May-14 22:33N 50°50' E 001°02'1311.8
2015-May-14 21:26N 50°59' E 001°18'910.8
2015-May-14 20:33N 51°05' E 001°29'1211.6
2015-May-14 19:33N 51°13' E 001°43'1313.4
2015-May-14 18:33N 51°24' E 001°55'1514.7
2015-May-14 17:33N 51°35' E 002°10'10013.3
2015-May-14 10:05N 52°53' E 003°52'713.0
2015-May-14 09:31N 52°58' E 004°01'3013.8
2015-May-14 07:20N 53°22' E 004°31'1314.1
2015-May-14 06:26N 53°34' E 004°38'2613.5
2015-May-14 04:32N 53°58' E 004°54'1312.8
2015-May-14 03:33N 54°08' E 005°06'1413.1
2015-May-14 02:30N 54°20' E 005°18'27110.7
2015-May-13 01:18N 57°49' E 010°27'811.0
2015-May-13 00:33N 57°49' E 010°42'1211.3
2015-May-12 23:32N 57°42' E 011°00'1111.8
2015-May-12 22:34N 57°34' E 011°15'1211.9
2015-May-12 21:34N 57°25' E 011°29'1312.6
2015-May-12 20:33N 57°13' E 011°37'1312.9
2015-May-12 19:33N 57°00' E 011°45'1212.5
2015-May-12 18:33N 56°49' E 011°52'8712.4
2015-May-12 11:33N 55°28' E 010°56'2512.3
2015-May-12 09:31N 55°03' E 011°03'1211.8
2015-May-12 08:31N 54°53' E 010°54'1111.7
2015-May-12 07:33N 54°41' E 010°55'1413.6
2015-May-12 06:33N 54°35' E 011°16'1413.6
2015-May-12 05:33N 54°29' E 011°37'1312.9
2015-May-12 04:33N 54°26' E 011°59'1111.4
2015-May-12 03:33N 54°34' E 012°13'1312.9
2015-May-12 02:33N 54°43' E 012°29'1312.9
2015-May-12 01:33N 54°49' E 012°49'1313.1
2015-May-12 00:33N 54°53' E 013°10'1313.2
2015-May-11 23:33N 54°58' E 013°32'1313.1
2015-May-11 22:33N 55°02' E 013°53'1312.6
2015-May-11 21:33N 55°09' E 014°11'1313.0
2015-May-11 20:33N 55°20' E 014°26'1312.9
2015-May-11 19:33N 55°28' E 014°42'1313.0
2015-May-11 18:33N 55°35' E 015°02'1313.1
2015-May-11 17:33N 55°42' E 015°22'1713.2
2015-May-11 16:14N 55°50' E 015°48'33312.9
2015-May-10 14:30N 59°38' E 023°24'1313.6
2015-May-10 13:32N 59°42' E 023°49'1413.8
2015-May-10 12:33N 59°46' E 024°14'1413.6
2015-May-10 11:33N 59°49' E 024°41'4513.5
2015-May-10 08:15N 59°58' E 026°08'913.5
2015-May-10 07:33N 60°00' E 026°26'1313.2
2015-May-10 06:33N 60°00' E 026°52'1712.8
2015-May-10 05:13N 60°06' E 027°25'1313.0
2015-May-10 04:15N 60°12' E 027°47'5712.2
2015-May-09 23:33N 59°60' E 029°39'1010.2
2015-May-09 22:33N 59°56' E 029°58'7 7.3
2015-May-09 21:33N 59°53' E 030°11'0 0.0
2015-May-09 20:31N 59°53' E 030°11'0 0.0
2015-May-09 19:31N 59°53' E 030°11'0 0.0
2015-May-09 18:31N 59°53' E 030°11'0 0.0
2015-May-09 17:31N 59°53' E 030°11'0 0.0
2015-May-09 16:31N 59°53' E 030°11'0 0.0
2015-May-09 15:31N 59°53' E 030°11'0 0.0
2015-May-09 14:31N 59°53' E 030°11'0 0.0
2015-May-09 13:31N 59°53' E 030°11'0 0.0
2015-May-09 12:31N 59°53' E 030°11'0 0.0
2015-May-09 11:31N 59°53' E 030°11'0 0.0
2015-May-09 10:31N 59°53' E 030°11'0 0.0
2015-May-09 09:31N 59°53' E 030°11'0 0.0
2015-May-09 08:28N 59°53' E 030°11'0 0.0
2015-May-09 07:31N 59°53' E 030°11'0 0.0
2015-May-09 06:31N 59°53' E 030°11'0 0.0
2015-May-09 05:31N 59°53' E 030°11'0 0.0
2015-May-09 04:33N 59°53' E 030°11'7 6.9
2015-May-09 03:33N 59°56' E 029°59'1010.4
2015-May-09 02:33N 59°60' E 029°40'11 8.4
2015-May-09 01:14N 60°02' E 029°18'6310.8
2015-May-08 19:25N 60°00' E 027°12'  

Dump ship's entire track history